sensor_id;sensor_type;location;lat;lon;timestamp;temperature;humidity
6865;DHT22;3471;49.678;8.388;2022-11-25T00:01:30;6.50;99.90
6865;DHT22;3471;49.678;8.388;2022-11-25T00:03:57;6.40;99.90
6865;DHT22;3471;49.678;8.388;2022-11-25T00:06:28;6.50;99.90
6865;DHT22;3471;49.678;8.388;2022-11-25T00:08:56;6.50;99.90
6865;DHT22;3471;49.678;8.388;2022-11-25T00:11:22;6.50;99.90
6865;DHT22;3471;49.678;8.388;2022-11-25T00:13:48;6.60;99.90
6865;DHT22;3471;49.678;8.388;2022-11-25T00:16:16;6.60;99.90
6865;DHT22;3471;49.678;8.388;2022-11-25T00:18:47;6.60;99.90
6865;DHT22;3471;49.678;8.388;2022-11-25T00:21:14;6.60;99.90
6865;DHT22;3471;49.678;8.388;2022-11-25T00:23:40;6.60;99.90
6865;DHT22;3471;49.678;8.388;2022-11-25T00:26:10;6.60;99.90
6865;DHT22;3471;49.678;8.388;2022-11-25T00:28:36;6.60;99.90
6865;DHT22;3471;49.678;8.388;2022-11-25T00:31:07;6.60;99.90
6865;DHT22;3471;49.678;8.388;2022-11-25T00:33:33;6.60;99.90
6865;DHT22;3471;49.678;8.388;2022-11-25T00:36:00;6.60;99.90
6865;DHT22;3471;49.678;8.388;2022-11-25T00:38:27;6.50;99.90
6865;DHT22;3471;49.678;8.388;2022-11-25T00:40:52;6.40;99.90
6865;DHT22;3471;49.678;8.388;2022-11-25T00:43:37;6.40;99.90
6865;DHT22;3471;49.678;8.388;2022-11-25T00:46:20;6.30;99.90
6865;DHT22;3471;49.678;8.388;2022-11-25T00:48:46;6.30;99.90
6865;DHT22;3471;49.678;8.388;2022-11-25T00:51:11;6.20;99.90
6865;DHT22;3471;49.678;8.388;2022-11-25T00:53:37;6.20;99.90
6865;DHT22;3471;49.678;8.388;2022-11-25T00:56:03;6.20;99.90
6865;DHT22;3471;49.678;8.388;2022-11-25T00:58:38;6.20;99.90
6865;DHT22;3471;49.678;8.388;2022-11-25T01:01:03;6.10;99.90
6865;DHT22;3471;49.678;8.388;2022-11-25T01:03:29;6.10;99.90
6865;DHT22;3471;49.678;8.388;2022-11-25T01:06:00;6.10;99.90
6865;DHT22;3471;49.678;8.388;2022-11-25T01:08:25;6.10;99.90
6865;DHT22;3471;49.678;8.388;2022-11-25T01:11:00;6.10;99.90
6865;DHT22;3471;49.678;8.388;2022-11-25T01:13:26;6.10;99.90
6865;DHT22;3471;49.678;8.388;2022-11-25T01:15:52;6.00;99.90
6865;DHT22;3471;49.678;8.388;2022-11-25T01:18:18;6.00;99.90
6865;DHT22;3471;49.678;8.388;2022-11-25T01:20:43;6.00;99.90
6865;DHT22;3471;49.678;8.388;2022-11-25T01:23:09;6.00;99.90
6865;DHT22;3471;49.678;8.388;2022-11-25T01:25:38;6.00;99.90
6865;DHT22;3471;49.678;8.388;2022-11-25T01:28:04;6.00;99.90
6865;DHT22;3471;49.678;8.388;2022-11-25T01:30:30;6.00;99.90
6865;DHT22;3471;49.678;8.388;2022-11-25T01:32:56;6.00;99.90
6865;DHT22;3471;49.678;8.388;2022-11-25T01:35:22;6.10;99.90
6865;DHT22;3471;49.678;8.388;2022-11-25T01:37:48;6.10;99.90
6865;DHT22;3471;49.678;8.388;2022-11-25T01:40:13;6.10;99.90
6865;DHT22;3471;49.678;8.388;2022-11-25T01:42:44;6.10;99.90
6865;DHT22;3471;49.678;8.388;2022-11-25T01:47:56;6.00;99.90
6865;DHT22;3471;49.678;8.388;2022-11-25T01:50:25;6.00;99.90
6865;DHT22;3471;49.678;8.388;2022-11-25T01:52:54;6.00;99.90
6865;DHT22;3471;49.678;8.388;2022-11-25T01:55:27;6.00;99.90
6865;DHT22;3471;49.678;8.388;2022-11-25T01:58:09;5.90;99.90
6865;DHT22;3471;49.678;8.388;2022-11-25T02:00:36;5.90;99.90
6865;DHT22;3471;49.678;8.388;2022-11-25T02:03:02;5.90;99.90
6865;DHT22;3471;49.678;8.388;2022-11-25T02:08:25;5.90;99.90
6865;DHT22;3471;49.678;8.388;2022-11-25T02:10:53;6.00;99.90
6865;DHT22;3471;49.678;8.388;2022-11-25T02:13:20;6.10;99.90
6865;DHT22;3471;49.678;8.388;2022-11-25T02:15:47;6.20;99.90
6865;DHT22;3471;49.678;8.388;2022-11-25T02:18:12;6.30;99.90
6865;DHT22;3471;49.678;8.388;2022-11-25T02:20:38;6.40;99.90
6865;DHT22;3471;49.678;8.388;2022-11-25T02:23:31;6.40;99.90
6865;DHT22;3471;49.678;8.388;2022-11-25T02:26:00;6.50;99.90
6865;DHT22;3471;49.678;8.388;2022-11-25T02:28:29;6.60;99.90
6865;DHT22;3471;49.678;8.388;2022-11-25T02:30:55;6.60;99.90
6865;DHT22;3471;49.678;8.388;2022-11-25T02:33:21;6.70;99.90
6865;DHT22;3471;49.678;8.388;2022-11-25T02:35:51;6.80;99.90
6865;DHT22;3471;49.678;8.388;2022-11-25T02:40:58;6.80;99.90
6865;DHT22;3471;49.678;8.388;2022-11-25T02:43:25;6.80;99.90
6865;DHT22;3471;49.678;8.388;2022-11-25T02:45:55;6.80;99.90
6865;DHT22;3471;49.678;8.388;2022-11-25T02:48:22;6.80;99.90
6865;DHT22;3471;49.678;8.388;2022-11-25T02:50:48;6.80;99.90
6865;DHT22;3471;49.678;8.388;2022-11-25T02:53:14;6.80;99.90
6865;DHT22;3471;49.678;8.388;2022-11-25T02:55:40;6.80;99.90
6865;DHT22;3471;49.678;8.388;2022-11-25T02:58:06;6.80;99.90
6865;DHT22;3471;49.678;8.388;2022-11-25T03:00:32;6.80;99.90
6865;DHT22;3471;49.678;8.388;2022-11-25T03:02:57;6.70;99.90
6865;DHT22;3471;49.678;8.388;2022-11-25T03:05:23;6.70;99.90
6865;DHT22;3471;49.678;8.388;2022-11-25T03:07:50;6.70;99.90
6865;DHT22;3471;49.678;8.388;2022-11-25T03:10:15;6.70;99.90
6865;DHT22;3471;49.678;8.388;2022-11-25T03:12:41;6.70;99.90
6865;DHT22;3471;49.678;8.388;2022-11-25T03:15:07;6.70;99.90
6865;DHT22;3471;49.678;8.388;2022-11-25T03:17:32;6.70;99.90
6865;DHT22;3471;49.678;8.388;2022-11-25T03:19:58;6.60;99.90
6865;DHT22;3471;49.678;8.388;2022-11-25T03:22:24;6.60;99.90
6865;DHT22;3471;49.678;8.388;2022-11-25T03:24:49;6.60;99.90
6865;DHT22;3471;49.678;8.388;2022-11-25T03:27:15;6.50;99.90
6865;DHT22;3471;49.678;8.388;2022-11-25T03:29:40;6.50;99.90
6865;DHT22;3471;49.678;8.388;2022-11-25T03:32:06;6.50;99.90
6865;DHT22;3471;49.678;8.388;2022-11-25T03:34:32;6.40;99.90
6865;DHT22;3471;49.678;8.388;2022-11-25T03:36:57;6.40;99.90
6865;DHT22;3471;49.678;8.388;2022-11-25T03:39:23;6.40;99.90
6865;DHT22;3471;49.678;8.388;2022-11-25T03:41:49;6.30;99.90
6865;DHT22;3471;49.678;8.388;2022-11-25T03:44:14;6.40;99.90
6865;DHT22;3471;49.678;8.388;2022-11-25T03:46:40;6.40;99.90
6865;DHT22;3471;49.678;8.388;2022-11-25T03:49:05;6.40;99.90
6865;DHT22;3471;49.678;8.388;2022-11-25T03:51:31;6.40;99.90
6865;DHT22;3471;49.678;8.388;2022-11-25T03:53:56;6.40;99.90
6865;DHT22;3471;49.678;8.388;2022-11-25T03:56:22;6.40;99.90
6865;DHT22;3471;49.678;8.388;2022-11-25T03:58:48;6.40;99.90
6865;DHT22;3471;49.678;8.388;2022-11-25T04:01:13;6.40;99.90
6865;DHT22;3471;49.678;8.388;2022-11-25T04:03:39;6.40;99.90
6865;DHT22;3471;49.678;8.388;2022-11-25T04:06:04;6.40;99.90
6865;DHT22;3471;49.678;8.388;2022-11-25T04:08:30;6.50;99.90
6865;DHT22;3471;49.678;8.388;2022-11-25T04:10:56;6.50;99.90
6865;DHT22;3471;49.678;8.388;2022-11-25T04:13:21;6.50;99.90
6865;DHT22;3471;49.678;8.388;2022-11-25T04:15:48;6.50;99.90
6865;DHT22;3471;49.678;8.388;2022-11-25T04:18:16;6.50;99.90
6865;DHT22;3471;49.678;8.388;2022-11-25T04:20:42;6.60;99.90
6865;DHT22;3471;49.678;8.388;2022-11-25T04:23:08;6.60;99.90
6865;DHT22;3471;49.678;8.388;2022-11-25T04:25:35;6.70;99.90
6865;DHT22;3471;49.678;8.388;2022-11-25T04:28:01;6.70;99.90
6865;DHT22;3471;49.678;8.388;2022-11-25T04:30:27;6.80;99.90
6865;DHT22;3471;49.678;8.388;2022-11-25T04:32:53;6.80;99.90
6865;DHT22;3471;49.678;8.388;2022-11-25T04:35:19;6.80;99.90
6865;DHT22;3471;49.678;8.388;2022-11-25T04:37:44;6.90;99.90
6865;DHT22;3471;49.678;8.388;2022-11-25T04:40:10;6.90;99.90
6865;DHT22;3471;49.678;8.388;2022-11-25T04:42:36;7.00;99.90
6865;DHT22;3471;49.678;8.388;2022-11-25T04:45:07;7.00;99.90
6865;DHT22;3471;49.678;8.388;2022-11-25T04:47:33;7.00;99.90
6865;DHT22;3471;49.678;8.388;2022-11-25T04:49:59;7.00;99.90
6865;DHT22;3471;49.678;8.388;2022-11-25T04:52:24;7.10;99.90
6865;DHT22;3471;49.678;8.388;2022-11-25T04:54:50;7.10;99.90
6865;DHT22;3471;49.678;8.388;2022-11-25T04:57:16;7.10;99.90
6865;DHT22;3471;49.678;8.388;2022-11-25T04:59:42;7.10;99.90
6865;DHT22;3471;49.678;8.388;2022-11-25T05:04:47;7.00;99.90
6865;DHT22;3471;49.678;8.388;2022-11-25T05:07:14;7.00;99.90
6865;DHT22;3471;49.678;8.388;2022-11-25T05:09:40;7.00;99.90
6865;DHT22;3471;49.678;8.388;2022-11-25T05:12:09;7.00;99.90
6865;DHT22;3471;49.678;8.388;2022-11-25T05:14:35;7.10;99.90
6865;DHT22;3471;49.678;8.388;2022-11-25T05:17:04;7.00;99.90
6865;DHT22;3471;49.678;8.388;2022-11-25T05:19:29;7.00;99.90
6865;DHT22;3471;49.678;8.388;2022-11-25T05:21:55;7.00;99.90
6865;DHT22;3471;49.678;8.388;2022-11-25T05:24:21;7.00;99.90
6865;DHT22;3471;49.678;8.388;2022-11-25T05:26:46;7.10;99.90
6865;DHT22;3471;49.678;8.388;2022-11-25T05:29:12;7.10;99.90
6865;DHT22;3471;49.678;8.388;2022-11-25T05:31:37;7.20;99.90
6865;DHT22;3471;49.678;8.388;2022-11-25T05:34:03;7.20;99.90
6865;DHT22;3471;49.678;8.388;2022-11-25T05:36:29;7.20;99.90
6865;DHT22;3471;49.678;8.388;2022-11-25T05:38:56;7.30;99.90
6865;DHT22;3471;49.678;8.388;2022-11-25T05:41:22;7.30;99.90
6865;DHT22;3471;49.678;8.388;2022-11-25T05:43:47;7.30;99.90
6865;DHT22;3471;49.678;8.388;2022-11-25T05:46:13;7.30;99.90
6865;DHT22;3471;49.678;8.388;2022-11-25T05:48:39;7.40;99.90
6865;DHT22;3471;49.678;8.388;2022-11-25T05:51:04;7.40;99.90
6865;DHT22;3471;49.678;8.388;2022-11-25T05:53:30;7.40;99.90
6865;DHT22;3471;49.678;8.388;2022-11-25T05:55:58;7.50;99.90
6865;DHT22;3471;49.678;8.388;2022-11-25T05:58:25;7.50;99.90
6865;DHT22;3471;49.678;8.388;2022-11-25T06:00:51;7.50;99.90
6865;DHT22;3471;49.678;8.388;2022-11-25T06:03:17;7.50;99.90
6865;DHT22;3471;49.678;8.388;2022-11-25T06:05:43;7.60;99.90
6865;DHT22;3471;49.678;8.388;2022-11-25T06:08:09;7.60;99.90
6865;DHT22;3471;49.678;8.388;2022-11-25T06:10:38;7.60;99.90
6865;DHT22;3471;49.678;8.388;2022-11-25T06:13:05;7.60;99.90
6865;DHT22;3471;49.678;8.388;2022-11-25T06:15:30;7.60;99.90
6865;DHT22;3471;49.678;8.388;2022-11-25T06:17:56;7.60;99.90
6865;DHT22;3471;49.678;8.388;2022-11-25T06:20:22;7.60;99.90
6865;DHT22;3471;49.678;8.388;2022-11-25T06:22:47;7.60;99.90
6865;DHT22;3471;49.678;8.388;2022-11-25T06:25:13;7.60;99.90
6865;DHT22;3471;49.678;8.388;2022-11-25T06:27:38;7.50;99.90
6865;DHT22;3471;49.678;8.388;2022-11-25T06:30:05;7.50;99.90
6865;DHT22;3471;49.678;8.388;2022-11-25T06:32:32;7.40;99.90
6865;DHT22;3471;49.678;8.388;2022-11-25T06:34:57;7.40;99.90
6865;DHT22;3471;49.678;8.388;2022-11-25T06:37:23;7.40;99.90
6865;DHT22;3471;49.678;8.388;2022-11-25T06:39:48;7.40;99.90
6865;DHT22;3471;49.678;8.388;2022-11-25T06:42:14;7.40;99.90
6865;DHT22;3471;49.678;8.388;2022-11-25T06:44:39;7.50;99.90
6865;DHT22;3471;49.678;8.388;2022-11-25T06:47:05;7.50;99.90
6865;DHT22;3471;49.678;8.388;2022-11-25T06:49:30;7.50;99.90
6865;DHT22;3471;49.678;8.388;2022-11-25T06:51:56;7.50;99.90
6865;DHT22;3471;49.678;8.388;2022-11-25T06:54:24;7.40;99.90
6865;DHT22;3471;49.678;8.388;2022-11-25T06:56:50;7.50;99.90
6865;DHT22;3471;49.678;8.388;2022-11-25T06:59:19;7.50;99.90
6865;DHT22;3471;49.678;8.388;2022-11-25T07:01:44;7.50;99.90
6865;DHT22;3471;49.678;8.388;2022-11-25T07:04:10;7.50;99.90
6865;DHT22;3471;49.678;8.388;2022-11-25T07:06:36;7.50;99.90
6865;DHT22;3471;49.678;8.388;2022-11-25T07:09:03;7.50;99.90
6865;DHT22;3471;49.678;8.388;2022-11-25T07:11:34;7.50;99.90
6865;DHT22;3471;49.678;8.388;2022-11-25T07:14:05;7.60;99.90
6865;DHT22;3471;49.678;8.388;2022-11-25T07:16:32;7.60;99.90
6865;DHT22;3471;49.678;8.388;2022-11-25T07:18:59;7.60;99.90
6865;DHT22;3471;49.678;8.388;2022-11-25T07:21:28;7.60;99.90
6865;DHT22;3471;49.678;8.388;2022-11-25T07:23:55;7.70;99.90
6865;DHT22;3471;49.678;8.388;2022-11-25T07:26:22;7.70;99.90
6865;DHT22;3471;49.678;8.388;2022-11-25T07:28:50;7.80;99.90
6865;DHT22;3471;49.678;8.388;2022-11-25T07:31:22;7.80;99.90
6865;DHT22;3471;49.678;8.388;2022-11-25T07:33:52;7.90;99.90
6865;DHT22;3471;49.678;8.388;2022-11-25T07:36:19;7.90;99.90
6865;DHT22;3471;49.678;8.388;2022-11-25T07:38:44;7.90;99.90
6865;DHT22;3471;49.678;8.388;2022-11-25T07:41:19;7.90;99.90
6865;DHT22;3471;49.678;8.388;2022-11-25T07:43:57;7.90;99.90
6865;DHT22;3471;49.678;8.388;2022-11-25T07:46:26;7.90;99.90
6865;DHT22;3471;49.678;8.388;2022-11-25T07:48:53;7.90;99.90
6865;DHT22;3471;49.678;8.388;2022-11-25T07:51:23;8.00;99.90
6865;DHT22;3471;49.678;8.388;2022-11-25T07:53:51;8.00;99.90
6865;DHT22;3471;49.678;8.388;2022-11-25T07:56:17;8.00;99.90
6865;DHT22;3471;49.678;8.388;2022-11-25T07:58:44;8.00;99.90
6865;DHT22;3471;49.678;8.388;2022-11-25T08:01:11;8.00;99.90
6865;DHT22;3471;49.678;8.388;2022-11-25T08:03:39;8.10;99.90
6865;DHT22;3471;49.678;8.388;2022-11-25T08:06:12;8.10;99.90
6865;DHT22;3471;49.678;8.388;2022-11-25T08:08:39;8.10;99.90
6865;DHT22;3471;49.678;8.388;2022-11-25T08:11:11;8.10;99.90
6865;DHT22;3471;49.678;8.388;2022-11-25T08:13:37;8.00;99.90
6865;DHT22;3471;49.678;8.388;2022-11-25T08:16:04;8.00;99.90
6865;DHT22;3471;49.678;8.388;2022-11-25T08:18:30;8.10;99.90
6865;DHT22;3471;49.678;8.388;2022-11-25T08:21:00;8.10;99.90
6865;DHT22;3471;49.678;8.388;2022-11-25T08:23:26;8.10;99.90
6865;DHT22;3471;49.678;8.388;2022-11-25T08:25:52;8.10;99.90
6865;DHT22;3471;49.678;8.388;2022-11-25T08:28:18;8.10;99.90
6865;DHT22;3471;49.678;8.388;2022-11-25T08:30:43;8.10;99.90
6865;DHT22;3471;49.678;8.388;2022-11-25T08:33:09;8.10;99.90
6865;DHT22;3471;49.678;8.388;2022-11-25T08:35:34;8.10;99.90
6865;DHT22;3471;49.678;8.388;2022-11-25T08:38:04;8.10;99.90
6865;DHT22;3471;49.678;8.388;2022-11-25T08:40:30;8.10;99.90
6865;DHT22;3471;49.678;8.388;2022-11-25T08:42:56;8.10;99.90
6865;DHT22;3471;49.678;8.388;2022-11-25T08:45:21;8.10;99.90
6865;DHT22;3471;49.678;8.388;2022-11-25T08:47:47;8.10;99.90
6865;DHT22;3471;49.678;8.388;2022-11-25T08:50:13;8.20;99.90
6865;DHT22;3471;49.678;8.388;2022-11-25T08:52:39;8.20;99.90
6865;DHT22;3471;49.678;8.388;2022-11-25T08:55:05;8.20;99.90
6865;DHT22;3471;49.678;8.388;2022-11-25T08:57:30;8.20;99.90
6865;DHT22;3471;49.678;8.388;2022-11-25T08:59:56;8.30;99.90
6865;DHT22;3471;49.678;8.388;2022-11-25T09:02:22;8.20;99.90
6865;DHT22;3471;49.678;8.388;2022-11-25T09:04:47;8.20;99.90
6865;DHT22;3471;49.678;8.388;2022-11-25T09:07:13;8.20;99.90
6865;DHT22;3471;49.678;8.388;2022-11-25T09:09:39;8.20;99.90
6865;DHT22;3471;49.678;8.388;2022-11-25T09:12:04;8.20;99.90
6865;DHT22;3471;49.678;8.388;2022-11-25T09:14:30;8.30;99.90
6865;DHT22;3471;49.678;8.388;2022-11-25T09:16:56;8.30;99.90
6865;DHT22;3471;49.678;8.388;2022-11-25T09:19:22;8.30;99.90
6865;DHT22;3471;49.678;8.388;2022-11-25T09:21:47;8.30;99.90
6865;DHT22;3471;49.678;8.388;2022-11-25T09:24:13;8.30;99.90
6865;DHT22;3471;49.678;8.388;2022-11-25T09:26:38;8.40;99.90
6865;DHT22;3471;49.678;8.388;2022-11-25T09:29:06;8.40;99.90
6865;DHT22;3471;49.678;8.388;2022-11-25T09:31:32;8.40;99.90
6865;DHT22;3471;49.678;8.388;2022-11-25T09:33:59;8.50;99.90
6865;DHT22;3471;49.678;8.388;2022-11-25T09:36:24;8.40;99.90
6865;DHT22;3471;49.678;8.388;2022-11-25T09:38:50;8.50;99.90
6865;DHT22;3471;49.678;8.388;2022-11-25T09:50:29;8.60;99.90
6865;DHT22;3471;49.678;8.388;2022-11-25T09:55:35;8.60;99.90
6865;DHT22;3471;49.678;8.388;2022-11-25T10:00:53;8.70;99.90
6865;DHT22;3471;49.678;8.388;2022-11-25T10:03:42;8.80;99.90
6865;DHT22;3471;49.678;8.388;2022-11-25T10:08:47;9.00;99.90
6865;DHT22;3471;49.678;8.388;2022-11-25T10:11:30;9.20;99.90
6865;DHT22;3471;49.678;8.388;2022-11-25T10:14:20;9.20;99.90
6865;DHT22;3471;49.678;8.388;2022-11-25T10:17:08;9.30;99.90
6865;DHT22;3471;49.678;8.388;2022-11-25T10:22:24;9.40;99.90
6865;DHT22;3471;49.678;8.388;2022-11-25T10:24:53;9.40;99.90
6865;DHT22;3471;49.678;8.388;2022-11-25T10:28:09;9.40;99.90
6865;DHT22;3471;49.678;8.388;2022-11-25T10:30:19;9.50;99.90
6865;DHT22;3471;49.678;8.388;2022-11-25T10:33:28;9.50;99.90
6865;DHT22;3471;49.678;8.388;2022-11-25T10:38:28;9.60;99.90
6865;DHT22;3471;49.678;8.388;2022-11-25T10:41:01;9.60;99.90
6865;DHT22;3471;49.678;8.388;2022-11-25T10:43:32;9.60;99.90
6865;DHT22;3471;49.678;8.388;2022-11-25T10:46:10;9.60;99.90
6865;DHT22;3471;49.678;8.388;2022-11-25T10:48:57;9.60;99.90
6865;DHT22;3471;49.678;8.388;2022-11-25T10:51:36;9.60;99.90
6865;DHT22;3471;49.678;8.388;2022-11-25T10:54:24;9.60;99.90
6865;DHT22;3471;49.678;8.388;2022-11-25T10:57:01;9.60;99.90
6865;DHT22;3471;49.678;8.388;2022-11-25T10:59:32;9.60;99.90
6865;DHT22;3471;49.678;8.388;2022-11-25T11:02:23;9.60;99.90
6865;DHT22;3471;49.678;8.388;2022-11-25T11:07:28;9.60;99.90
6865;DHT22;3471;49.678;8.388;2022-11-25T11:09:54;9.60;99.90
6865;DHT22;3471;49.678;8.388;2022-11-25T11:12:31;9.60;99.90
6865;DHT22;3471;49.678;8.388;2022-11-25T11:15:23;9.60;99.90
6865;DHT22;3471;49.678;8.388;2022-11-25T11:17:49;9.60;99.90
6865;DHT22;3471;49.678;8.388;2022-11-25T11:20:24;9.60;99.90
6865;DHT22;3471;49.678;8.388;2022-11-25T11:23:16;9.70;99.90
6865;DHT22;3471;49.678;8.388;2022-11-25T11:28:41;9.80;99.90
6865;DHT22;3471;49.678;8.388;2022-11-25T11:31:17;10.30;99.90
6865;DHT22;3471;49.678;8.388;2022-11-25T11:36:26;13.10;99.90
6865;DHT22;3471;49.678;8.388;2022-11-25T11:42:18;17.30;99.90
6865;DHT22;3471;49.678;8.388;2022-11-25T11:45:11;18.80;99.90
6865;DHT22;3471;49.678;8.388;2022-11-25T11:47:51;19.90;99.90
6865;DHT22;3471;49.678;8.388;2022-11-25T11:50:39;20.20;99.90
6865;DHT22;3471;49.678;8.388;2022-11-25T12:01:17;16.60;99.90
6865;DHT22;3471;49.678;8.388;2022-11-25T12:04:24;15.80;99.90
6865;DHT22;3471;49.678;8.388;2022-11-25T12:06:59;15.00;99.90
6865;DHT22;3471;49.678;8.388;2022-11-25T12:09:30;14.50;99.90
6865;DHT22;3471;49.678;8.388;2022-11-25T12:12:02;14.00;99.90
6865;DHT22;3471;49.678;8.388;2022-11-25T12:14:56;13.60;99.90
6865;DHT22;3471;49.678;8.388;2022-11-25T12:17:31;13.20;99.90
6865;DHT22;3471;49.678;8.388;2022-11-25T12:22:56;12.60;99.90
6865;DHT22;3471;49.678;8.388;2022-11-25T12:25:26;12.30;99.90
6865;DHT22;3471;49.678;8.388;2022-11-25T12:28:05;12.10;99.90
6865;DHT22;3471;49.678;8.388;2022-11-25T12:30:40;12.00;99.90
6865;DHT22;3471;49.678;8.388;2022-11-25T12:36:04;11.80;99.90
6865;DHT22;3471;49.678;8.388;2022-11-25T12:38:45;11.70;99.90
6865;DHT22;3471;49.678;8.388;2022-11-25T12:44:15;11.60;99.90
6865;DHT22;3471;49.678;8.388;2022-11-25T12:46:48;11.50;99.90
6865;DHT22;3471;49.678;8.388;2022-11-25T12:52:41;11.50;99.90
6865;DHT22;3471;49.678;8.388;2022-11-25T12:55:22;11.50;99.90
6865;DHT22;3471;49.678;8.388;2022-11-25T13:04:14;11.40;99.90
6865;DHT22;3471;49.678;8.388;2022-11-25T13:10:16;11.40;99.90
6865;DHT22;3471;49.678;8.388;2022-11-25T13:15:28;11.60;99.90
6865;DHT22;3471;49.678;8.388;2022-11-25T13:18:19;11.70;99.90
6865;DHT22;3471;49.678;8.388;2022-11-25T13:20:54;11.90;99.90
6865;DHT22;3471;49.678;8.388;2022-11-25T13:23:23;12.10;99.90
6865;DHT22;3471;49.678;8.388;2022-11-25T13:25:50;12.20;99.90
6865;DHT22;3471;49.678;8.388;2022-11-25T13:28:32;12.20;99.90
6865;DHT22;3471;49.678;8.388;2022-11-25T13:36:18;12.30;99.90
6865;DHT22;3471;49.678;8.388;2022-11-25T13:46:44;12.70;99.90
6865;DHT22;3471;49.678;8.388;2022-11-25T13:54:51;12.20;99.90
6865;DHT22;3471;49.678;8.388;2022-11-25T13:57:27;12.10;99.90
6865;DHT22;3471;49.678;8.388;2022-11-25T14:02:42;11.80;99.90
6865;DHT22;3471;49.678;8.388;2022-11-25T14:19:57;11.60;99.90
6865;DHT22;3471;49.678;8.388;2022-11-25T14:30:50;11.50;99.90
6865;DHT22;3471;49.678;8.388;2022-11-25T14:33:23;11.60;99.90
6865;DHT22;3471;49.678;8.388;2022-11-25T14:35:54;11.90;99.90
6865;DHT22;3471;49.678;8.388;2022-11-25T14:38:27;12.50;99.90
6865;DHT22;3471;49.678;8.388;2022-11-25T14:41:02;13.00;99.90
6865;DHT22;3471;49.678;8.388;2022-11-25T14:43:42;13.30;99.90
6865;DHT22;3471;49.678;8.388;2022-11-25T14:48:40;13.30;99.90
6865;DHT22;3471;49.678;8.388;2022-11-25T14:51:11;13.20;99.90
6865;DHT22;3471;49.678;8.388;2022-11-25T14:53:41;13.00;99.90
6865;DHT22;3471;49.678;8.388;2022-11-25T14:56:08;12.80;99.90
6865;DHT22;3471;49.678;8.388;2022-11-25T14:58:39;12.60;99.90
6865;DHT22;3471;49.678;8.388;2022-11-25T15:01:15;12.40;99.90
6865;DHT22;3471;49.678;8.388;2022-11-25T15:03:41;12.30;99.90
6865;DHT22;3471;49.678;8.388;2022-11-25T15:06:12;12.10;99.90
6865;DHT22;3471;49.678;8.388;2022-11-25T15:08:43;11.90;99.90
6865;DHT22;3471;49.678;8.388;2022-11-25T15:11:16;11.80;99.90
6865;DHT22;3471;49.678;8.388;2022-11-25T15:13:47;11.70;99.90
6865;DHT22;3471;49.678;8.388;2022-11-25T15:16:19;11.60;99.90
6865;DHT22;3471;49.678;8.388;2022-11-25T15:18:55;11.50;99.90
6865;DHT22;3471;49.678;8.388;2022-11-25T15:23:54;11.20;99.90
6865;DHT22;3471;49.678;8.388;2022-11-25T15:26:22;11.00;99.90
6865;DHT22;3471;49.678;8.388;2022-11-25T15:28:54;10.90;99.90
6865;DHT22;3471;49.678;8.388;2022-11-25T15:31:23;10.80;99.90
6865;DHT22;3471;49.678;8.388;2022-11-25T15:33:53;10.80;99.90
6865;DHT22;3471;49.678;8.388;2022-11-25T15:36:22;10.70;99.90
6865;DHT22;3471;49.678;8.388;2022-11-25T15:38:48;10.60;99.90
6865;DHT22;3471;49.678;8.388;2022-11-25T15:43:53;10.60;99.90
6865;DHT22;3471;49.678;8.388;2022-11-25T15:46:20;10.60;99.90
6865;DHT22;3471;49.678;8.388;2022-11-25T15:48:47;10.60;99.90
6865;DHT22;3471;49.678;8.388;2022-11-25T15:51:35;10.50;99.90
6865;DHT22;3471;49.678;8.388;2022-11-25T15:54:05;10.50;99.90
6865;DHT22;3471;49.678;8.388;2022-11-25T15:56:36;10.50;99.90
6865;DHT22;3471;49.678;8.388;2022-11-25T15:59:02;10.40;99.90
6865;DHT22;3471;49.678;8.388;2022-11-25T16:01:28;10.40;99.90
6865;DHT22;3471;49.678;8.388;2022-11-25T16:04:09;10.40;99.90
6865;DHT22;3471;49.678;8.388;2022-11-25T16:06:50;10.40;99.90
6865;DHT22;3471;49.678;8.388;2022-11-25T16:09:19;10.30;99.90
6865;DHT22;3471;49.678;8.388;2022-11-25T16:11:45;10.30;99.90
6865;DHT22;3471;49.678;8.388;2022-11-25T16:14:33;10.30;99.90
6865;DHT22;3471;49.678;8.388;2022-11-25T16:17:08;10.30;99.90
6865;DHT22;3471;49.678;8.388;2022-11-25T16:19:40;10.20;99.90
6865;DHT22;3471;49.678;8.388;2022-11-25T16:22:12;10.10;99.90
6865;DHT22;3471;49.678;8.388;2022-11-25T16:24:50;10.10;99.90
6865;DHT22;3471;49.678;8.388;2022-11-25T16:27:24;10.10;99.90
6865;DHT22;3471;49.678;8.388;2022-11-25T16:32:19;10.10;99.90
6865;DHT22;3471;49.678;8.388;2022-11-25T16:34:45;10.10;99.90
6865;DHT22;3471;49.678;8.388;2022-11-25T16:37:11;10.10;99.90
6865;DHT22;3471;49.678;8.388;2022-11-25T16:39:37;10.10;99.90
6865;DHT22;3471;49.678;8.388;2022-11-25T16:42:04;10.10;99.90
6865;DHT22;3471;49.678;8.388;2022-11-25T16:44:32;10.10;99.90
6865;DHT22;3471;49.678;8.388;2022-11-25T16:46:59;10.10;99.90
6865;DHT22;3471;49.678;8.388;2022-11-25T16:49:25;10.20;99.90
6865;DHT22;3471;49.678;8.388;2022-11-25T16:51:51;10.20;99.90
6865;DHT22;3471;49.678;8.388;2022-11-25T16:54:21;10.20;99.90
6865;DHT22;3471;49.678;8.388;2022-11-25T16:56:51;10.30;99.90
6865;DHT22;3471;49.678;8.388;2022-11-25T16:59:53;10.30;99.90
6865;DHT22;3471;49.678;8.388;2022-11-25T17:02:20;10.30;99.90
6865;DHT22;3471;49.678;8.388;2022-11-25T17:04:46;10.30;99.90
6865;DHT22;3471;49.678;8.388;2022-11-25T17:07:14;10.30;99.90
6865;DHT22;3471;49.678;8.388;2022-11-25T17:09:40;10.30;99.90
6865;DHT22;3471;49.678;8.388;2022-11-25T17:12:18;10.30;99.90
6865;DHT22;3471;49.678;8.388;2022-11-25T17:14:47;10.30;99.90
6865;DHT22;3471;49.678;8.388;2022-11-25T17:17:19;10.40;99.90
6865;DHT22;3471;49.678;8.388;2022-11-25T17:19:45;10.40;99.90
6865;DHT22;3471;49.678;8.388;2022-11-25T17:22:16;10.40;99.90
6865;DHT22;3471;49.678;8.388;2022-11-25T17:24:42;10.40;99.90
6865;DHT22;3471;49.678;8.388;2022-11-25T17:27:14;10.30;99.90
6865;DHT22;3471;49.678;8.388;2022-11-25T17:29:42;10.30;99.90
6865;DHT22;3471;49.678;8.388;2022-11-25T17:32:11;10.30;99.90
6865;DHT22;3471;49.678;8.388;2022-11-25T17:34:38;10.40;99.90
6865;DHT22;3471;49.678;8.388;2022-11-25T17:37:11;10.40;99.90
6865;DHT22;3471;49.678;8.388;2022-11-25T17:39:37;10.40;99.90
6865;DHT22;3471;49.678;8.388;2022-11-25T17:42:04;10.40;99.90
6865;DHT22;3471;49.678;8.388;2022-11-25T17:44:29;10.40;99.90
6865;DHT22;3471;49.678;8.388;2022-11-25T17:46:56;10.40;99.90
6865;DHT22;3471;49.678;8.388;2022-11-25T17:49:22;10.40;99.90
6865;DHT22;3471;49.678;8.388;2022-11-25T17:51:48;10.40;99.90
6865;DHT22;3471;49.678;8.388;2022-11-25T17:54:14;10.40;99.90
6865;DHT22;3471;49.678;8.388;2022-11-25T17:56:42;10.40;99.90
6865;DHT22;3471;49.678;8.388;2022-11-25T17:59:29;10.40;99.90
6865;DHT22;3471;49.678;8.388;2022-11-25T18:01:55;10.40;99.90
6865;DHT22;3471;49.678;8.388;2022-11-25T18:04:30;10.40;99.90
6865;DHT22;3471;49.678;8.388;2022-11-25T18:06:56;10.30;99.90
6865;DHT22;3471;49.678;8.388;2022-11-25T18:09:22;10.40;99.90
6865;DHT22;3471;49.678;8.388;2022-11-25T18:11:53;10.30;99.90
6865;DHT22;3471;49.678;8.388;2022-11-25T18:14:31;10.30;99.90
6865;DHT22;3471;49.678;8.388;2022-11-25T18:17:00;10.30;99.90
6865;DHT22;3471;49.678;8.388;2022-11-25T18:19:26;10.20;99.90
6865;DHT22;3471;49.678;8.388;2022-11-25T18:21:53;10.20;99.90
6865;DHT22;3471;49.678;8.388;2022-11-25T18:24:22;10.20;99.90
6865;DHT22;3471;49.678;8.388;2022-11-25T18:26:48;10.20;99.90
6865;DHT22;3471;49.678;8.388;2022-11-25T18:29:20;10.20;99.90
6865;DHT22;3471;49.678;8.388;2022-11-25T18:31:47;10.20;99.90
6865;DHT22;3471;49.678;8.388;2022-11-25T18:34:15;10.20;99.90
6865;DHT22;3471;49.678;8.388;2022-11-25T18:36:41;10.20;99.90
6865;DHT22;3471;49.678;8.388;2022-11-25T18:39:07;10.20;99.90